createdAt,value
2019-01-04T00:01:26.308Z,103284.84
2019-01-04T00:03:55.795Z,103285.89
2019-01-04T00:06:25.297Z,103288.33
2019-01-04T00:08:54.938Z,103283.14
2019-01-04T00:11:24.490Z,103280.84
2019-01-04T00:13:54.095Z,103288.65
2019-01-04T00:16:23.607Z,103285.63
2019-01-04T00:18:53.174Z,103282.78
2019-01-04T00:21:22.668Z,103269.08
2019-01-04T00:23:52.200Z,103262.86
2019-01-04T00:26:21.676Z,103263.39
2019-01-04T00:28:51.190Z,103272.47
2019-01-04T00:31:20.833Z,103266.17
2019-01-04T00:33:50.342Z,103258.07
2019-01-04T00:36:19.870Z,103260.39
2019-01-04T00:38:49.383Z,103263.03
2019-01-04T00:41:18.869Z,103264.70
2019-01-04T00:43:48.395Z,103261.08
2019-01-04T00:46:17.928Z,103256.47
2019-01-04T00:48:47.429Z,103252.23
2019-01-04T00:51:16.933Z,103242.15
2019-01-04T00:53:46.650Z,103245.38
2019-01-04T00:56:35.148Z,103246.63
2019-01-04T00:59:41.021Z,103251.88
2019-01-04T01:02:41.335Z,103252.41
2019-01-04T01:05:42.540Z,103246.13
2019-01-04T01:08:40.359Z,103247.00
2019-01-04T01:11:23.375Z,103238.61
2019-01-04T01:14:14.163Z,103251.98
2019-01-04T01:17:16.255Z,103253.73
2019-01-04T01:20:05.593Z,103257.11
2019-01-04T01:23:24.897Z,103247.03
2019-01-04T01:26:24.249Z,103248.27
2019-01-04T01:29:30.824Z,103247.34
2019-01-04T01:32:34.833Z,103240.52
2019-01-04T01:35:38.920Z,103237.06
2019-01-04T01:38:31.027Z,103240.77
2019-01-04T01:41:36.809Z,103235.73
2019-01-04T01:44:16.468Z,103243.97
2019-01-04T01:46:59.084Z,103233.58
2019-01-04T01:49:57.454Z,103225.55
2019-01-04T01:52:37.136Z,103236.29
2019-01-04T01:55:07.254Z,103226.44
2019-01-04T01:57:36.863Z,103225.70
2019-01-04T02:00:07.179Z,103225.80
2019-01-04T02:02:36.922Z,103230.42
2019-01-04T02:05:07.194Z,103223.14
2019-01-04T02:07:37.177Z,103227.20
2019-01-04T02:10:08.380Z,103220.54
2019-01-04T02:12:37.932Z,103225.69
2019-01-04T02:15:08.377Z,103226.69
2019-01-04T02:17:37.881Z,103217.61
2019-01-04T02:20:08.038Z,103221.11
2019-01-04T02:22:37.893Z,103221.42
2019-01-04T02:25:07.379Z,103218.11
2019-01-04T02:27:36.857Z,103207.62
2019-01-04T02:30:08.375Z,103207.77
2019-01-04T02:32:37.844Z,103206.11
2019-01-04T02:35:07.391Z,103201.86
2019-01-04T02:37:36.956Z,103204.16
2019-01-04T02:40:06.517Z,103202.17
2019-01-04T02:42:36.006Z,103200.15
2019-01-04T02:45:06.415Z,103193.72
2019-01-04T02:47:35.897Z,103202.09
2019-01-04T02:50:06.515Z,103200.00
2019-01-04T02:52:36.074Z,103199.17
2019-01-04T02:55:06.242Z,103193.69
2019-01-04T02:57:35.731Z,103192.41
2019-01-04T03:00:09.295Z,103190.74
2019-01-04T03:02:38.788Z,103183.39
2019-01-04T03:05:09.142Z,103180.42
2019-01-04T03:07:38.952Z,103174.86
2019-01-04T03:10:08.540Z,103169.57
2019-01-04T03:12:38.063Z,103163.93
2019-01-04T03:15:08.467Z,103155.48
2019-01-04T03:17:37.970Z,103155.08
2019-01-04T03:20:07.445Z,103146.02
2019-01-04T03:22:37.396Z,103134.53
2019-01-04T03:25:06.868Z,103139.23
2019-01-04T03:27:36.345Z,103129.71
2019-01-04T03:30:06.835Z,103120.31
2019-01-04T03:32:36.403Z,103117.50
2019-01-04T03:35:06.349Z,103124.55
2019-01-04T03:37:35.909Z,103118.97
2019-01-04T03:40:09.259Z,103120.31
2019-01-04T03:42:38.766Z,103105.83
2019-01-04T03:45:08.843Z,103101.53
2019-01-04T03:47:38.354Z,103098.78
2019-01-04T03:50:08.399Z,103091.67
2019-01-04T03:52:37.949Z,103093.28
2019-01-04T03:55:07.442Z,103092.55
2019-01-04T03:57:36.916Z,103093.59
2019-01-04T04:00:10.334Z,103092.92
2019-01-04T04:02:39.843Z,103090.23
2019-01-04T04:05:09.467Z,103080.18
2019-01-04T04:07:38.972Z,103077.87
2019-01-04T04:10:08.862Z,103079.78
2019-01-04T04:12:38.365Z,103067.82
2019-01-04T04:15:08.005Z,103055.50
2019-01-04T04:17:37.493Z,103048.06
2019-01-04T04:20:08.395Z,103037.35
2019-01-04T04:22:38.661Z,103030.17
2019-01-04T04:25:08.191Z,103025.12
2019-01-04T04:27:37.678Z,103030.14
2019-01-04T04:30:09.290Z,103026.52
2019-01-04T04:32:38.795Z,103037.69
2019-01-04T04:35:08.365Z,103027.97
2019-01-04T04:37:37.919Z,103028.41
2019-01-04T04:40:07.612Z,103024.16
2019-01-04T04:42:37.084Z,103019.50
2019-01-04T04:45:07.172Z,103039.47
2019-01-04T04:47:36.676Z,103028.95
2019-01-04T04:50:06.174Z,103021.64
2019-01-04T04:52:35.766Z,103009.50
2019-01-04T04:55:05.401Z,103010.23
2019-01-04T04:57:34.940Z,103010.30
2019-01-04T05:00:06.405Z,103013.14
2019-01-04T05:02:35.865Z,103011.00
2019-01-04T05:05:06.352Z,103014.09
2019-01-04T05:07:36.269Z,103006.17
2019-01-04T05:10:06.714Z,102999.30
2019-01-04T05:12:36.195Z,102999.46
2019-01-04T05:15:06.068Z,102979.94
2019-01-04T05:17:35.577Z,102982.72
2019-01-04T05:20:05.540Z,102990.17
2019-01-04T05:22:35.084Z,102976.96
2019-01-04T05:25:04.577Z,102985.09
2019-01-04T05:27:34.071Z,102990.60
2019-01-04T05:30:04.430Z,102981.52
2019-01-04T05:32:33.983Z,102983.59
2019-01-04T05:35:03.576Z,102984.71
2019-01-04T05:37:33.119Z,102974.59
2019-01-04T05:40:02.613Z,102959.73
2019-01-04T05:42:32.127Z,102963.83
2019-01-04T05:45:01.683Z,102964.92
2019-01-04T05:47:31.151Z,102964.52
2019-01-04T05:50:00.651Z,102975.03
2019-01-04T05:52:30.481Z,102973.23
2019-01-04T05:55:00.009Z,102972.11
2019-01-04T05:57:29.495Z,102966.27
2019-01-04T05:59:59.033Z,102967.62
2019-01-04T06:02:28.607Z,102962.55
2019-01-04T06:04:58.106Z,102961.20
2019-01-04T06:07:27.654Z,102964.89
2019-01-04T06:09:57.158Z,102965.17
2019-01-04T06:12:26.664Z,102959.95
2019-01-04T06:14:56.556Z,102945.71
2019-01-04T06:17:26.046Z,102951.41
2019-01-04T06:19:55.551Z,102959.86
2019-01-04T06:22:25.096Z,102954.59
2019-01-04T06:24:54.603Z,102949.05
2019-01-04T06:27:24.105Z,102950.39
2019-01-04T06:29:53.614Z,102949.67
2019-01-04T06:32:23.118Z,102940.60
2019-01-04T06:34:52.576Z,102940.98
2019-01-04T06:37:22.182Z,102937.34
2019-01-04T06:39:51.673Z,102917.66
2019-01-04T06:42:21.170Z,102919.64
2019-01-04T06:44:50.691Z,102917.27
2019-01-04T06:47:20.172Z,102903.67
2019-01-04T06:49:49.666Z,102908.41
2019-01-04T06:52:19.190Z,102912.91
2019-01-04T06:55:21.929Z,102898.69
2019-01-04T06:57:51.522Z,102898.92
2019-01-04T07:00:21.129Z,102896.94
2019-01-04T07:02:50.613Z,102893.63
2019-01-04T07:05:20.122Z,102900.82
2019-01-04T07:07:49.662Z,102900.51
2019-01-04T07:10:19.136Z,102901.14
2019-01-04T07:12:48.659Z,102906.91
2019-01-04T07:15:18.137Z,102890.22
2019-01-04T07:17:47.642Z,102884.06
2019-01-04T07:20:17.529Z,102873.47
2019-01-04T07:22:47.038Z,102886.98
2019-01-04T07:25:16.537Z,102893.14
2019-01-04T07:27:46.071Z,102897.58
2019-01-04T07:30:15.581Z,102901.30
2019-01-04T07:32:45.083Z,102892.20
2019-01-04T07:35:14.708Z,102888.25
2019-01-04T07:37:44.206Z,102889.40
2019-01-04T07:40:14.453Z,102886.04
2019-01-04T07:42:44.234Z,102879.28
2019-01-04T07:45:13.739Z,102870.76
2019-01-04T07:47:43.218Z,102877.47
2019-01-04T07:50:12.797Z,102865.97
2019-01-04T07:52:42.331Z,102871.10
2019-01-04T07:55:11.867Z,102867.23
2019-01-04T07:57:41.397Z,102856.87
2019-01-04T08:00:12.950Z,102855.14
2019-01-04T08:02:44.470Z,102858.11
2019-01-04T08:05:19.437Z,102849.98
2019-01-04T08:07:48.939Z,102852.77
2019-01-04T08:10:18.452Z,102856.00
2019-01-04T08:12:47.996Z,102845.09
2019-01-04T08:15:17.493Z,102842.72
2019-01-04T08:17:46.999Z,102839.06
2019-01-04T08:20:16.522Z,102839.44
2019-01-04T08:22:46.030Z,102839.08
2019-01-04T08:25:15.611Z,102838.12
2019-01-04T08:27:45.185Z,102835.97
2019-01-04T08:30:14.917Z,102838.28
2019-01-04T08:32:44.492Z,102832.72
2019-01-04T08:35:14.116Z,102830.20
2019-01-04T08:37:43.697Z,102824.69
2019-01-04T08:40:13.649Z,102831.50
2019-01-04T08:42:43.197Z,102824.20
2019-01-04T08:45:13.178Z,102824.33
2019-01-04T08:47:42.688Z,102827.41
2019-01-04T08:50:12.307Z,102832.45
2019-01-04T08:52:41.806Z,102830.66
2019-01-04T08:55:11.301Z,102837.06
2019-01-04T08:57:40.833Z,102827.34
2019-01-04T09:00:14.519Z,102826.29
2019-01-04T09:02:44.006Z,102822.08
2019-01-04T09:05:13.956Z,102810.60
2019-01-04T09:07:43.504Z,102808.36
2019-01-04T09:10:13.070Z,102802.04
2019-01-04T09:12:42.607Z,102800.00
2019-01-04T09:15:12.182Z,102801.46
2019-01-04T09:17:41.720Z,102810.47
2019-01-04T09:20:11.307Z,102808.95
2019-01-04T09:22:40.880Z,102808.29
2019-01-04T09:25:10.666Z,102793.63
2019-01-04T09:27:41.245Z,102781.33
2019-01-04T09:30:12.681Z,102772.45
2019-01-04T09:32:42.165Z,102771.35
2019-01-04T09:35:11.710Z,102779.70
2019-01-04T09:37:42.769Z,102779.20
2019-01-04T09:40:12.337Z,102780.46
2019-01-04T09:42:41.842Z,102780.59
2019-01-04T09:45:11.405Z,102780.28
2019-01-04T09:47:41.051Z,102779.64
2019-01-04T09:50:10.614Z,102776.11
2019-01-04T09:52:40.116Z,102767.41
2019-01-04T09:55:13.926Z,102773.38
2019-01-04T09:57:43.421Z,102757.80
2019-01-04T10:00:13.041Z,102757.83
2019-01-04T10:02:42.676Z,102752.77
2019-01-04T10:05:12.620Z,102735.99
2019-01-04T10:07:42.136Z,102720.91
2019-01-04T10:10:12.163Z,102703.06
2019-01-04T10:12:41.928Z,102699.38
2019-01-04T10:15:14.964Z,102676.63
2019-01-04T10:17:44.794Z,102667.95
2019-01-04T10:20:14.768Z,102675.60
2019-01-04T10:22:44.281Z,102680.16
2019-01-04T10:25:13.814Z,102672.55
2019-01-04T10:27:43.291Z,102666.95
2019-01-04T10:30:25.259Z,102667.33
2019-01-04T10:32:54.768Z,102662.48
2019-01-04T10:35:24.256Z,102671.02
2019-01-04T10:37:54.022Z,102668.05
2019-01-04T10:40:23.515Z,102656.05
2019-01-04T10:42:53.017Z,102641.45
2019-01-04T10:45:22.647Z,102642.59
2019-01-04T10:47:52.149Z,102630.96
2019-01-04T10:50:21.658Z,102622.27
2019-01-04T10:52:51.188Z,102620.73
2019-01-04T10:55:20.693Z,102609.25
2019-01-04T10:57:50.187Z,102599.30
2019-01-04T11:00:19.863Z,102593.88
2019-01-04T11:02:49.339Z,102593.54
2019-01-04T11:05:18.834Z,102583.34
2019-01-04T11:07:48.478Z,102585.25
2019-01-04T11:10:18.036Z,102572.56
2019-01-04T11:12:47.535Z,102561.02
2019-01-04T11:15:17.063Z,102553.91
2019-01-04T11:17:46.570Z,102546.68
2019-01-04T11:20:44.072Z,102553.52
2019-01-04T11:23:18.310Z,102562.27
2019-01-04T11:26:13.547Z,102553.41
2019-01-04T11:28:50.730Z,102538.13
2019-01-04T11:31:42.404Z,102526.49
2019-01-04T11:34:52.668Z,102511.20
2019-01-04T11:37:55.670Z,102508.42
2019-01-04T11:40:29.884Z,102521.59
2019-01-04T11:43:23.752Z,102541.41
2019-01-04T11:46:03.302Z,102550.05
2019-01-04T11:48:52.631Z,102553.72
2019-01-04T11:51:39.021Z,102541.22
2019-01-04T11:54:10.444Z,102531.79
2019-01-04T11:56:40.017Z,102530.33
2019-01-04T11:59:09.499Z,102516.77
2019-01-04T12:01:39.023Z,102519.65
2019-01-04T12:04:08.584Z,102519.91
2019-01-04T12:06:38.186Z,102514.32
2019-01-04T12:09:08.423Z,102502.29
2019-01-04T12:11:37.903Z,102500.55
2019-01-04T12:14:07.406Z,102504.91
2019-01-04T12:16:37.239Z,102500.18
2019-01-04T12:19:06.760Z,102494.55
2019-01-04T12:21:36.291Z,102496.52
2019-01-04T12:24:05.834Z,102492.88
2019-01-04T12:26:35.376Z,102490.55
2019-01-04T12:29:04.863Z,102480.10
2019-01-04T12:31:34.389Z,102473.66
2019-01-04T12:34:03.890Z,102476.69
2019-01-04T12:36:33.401Z,102475.14
2019-01-04T12:39:03.006Z,102468.17
2019-01-04T12:41:32.485Z,102476.11
2019-01-04T12:44:01.974Z,102480.51
2019-01-04T12:46:31.483Z,102487.47
2019-01-04T12:49:01.028Z,102481.30
2019-01-04T12:51:30.565Z,102466.77
2019-01-04T12:54:00.078Z,102460.58
2019-01-04T12:56:29.575Z,102453.04
2019-01-04T12:58:59.081Z,102456.15
2019-01-04T13:01:28.824Z,102451.45
2019-01-04T13:03:58.341Z,102453.87
2019-01-04T13:06:27.839Z,102448.97
2019-01-04T13:08:57.368Z,102445.11
2019-01-04T13:11:26.920Z,102447.29
2019-01-04T13:13:56.460Z,102446.18
2019-01-04T13:16:25.969Z,102441.58
2019-01-04T13:18:55.641Z,102462.49
2019-01-04T13:21:25.138Z,102462.34
2019-01-04T13:23:55.155Z,102466.24
2019-01-04T13:26:24.668Z,102463.25
2019-01-04T13:28:54.182Z,102464.16
2019-01-04T13:31:23.711Z,102453.53
2019-01-04T13:33:53.222Z,102451.37
2019-01-04T13:36:22.706Z,102452.39
2019-01-04T13:38:52.256Z,102452.64
2019-01-04T13:41:22.198Z,102457.13
2019-01-04T13:43:51.700Z,102457.44
2019-01-04T13:46:21.536Z,102459.17
2019-01-04T13:48:51.054Z,102462.73
2019-01-04T13:51:20.544Z,102451.29
2019-01-04T13:53:50.048Z,102456.30
2019-01-04T13:56:19.573Z,102450.09
2019-01-04T13:58:49.046Z,102449.32
2019-01-04T14:01:18.539Z,102442.56
2019-01-04T14:03:48.008Z,102447.54
2019-01-04T14:06:17.511Z,102447.20
2019-01-04T14:08:47.346Z,102439.38
2019-01-04T14:11:16.893Z,102445.09
2019-01-04T14:13:46.403Z,102444.48
2019-01-04T14:16:15.906Z,102447.37
2019-01-04T14:18:45.431Z,102439.38
2019-01-04T14:21:14.923Z,102447.58
2019-01-04T14:23:44.506Z,102451.45
2019-01-04T14:26:14.023Z,102453.97
2019-01-04T14:28:43.516Z,102456.25
2019-01-04T14:31:13.336Z,102457.98
2019-01-04T14:33:42.878Z,102444.38
2019-01-04T14:36:12.426Z,102433.13
2019-01-04T14:38:42.042Z,102424.81
2019-01-04T14:41:11.529Z,102428.08
2019-01-04T14:43:41.011Z,102434.69
2019-01-04T14:46:10.527Z,102435.03
2019-01-04T14:48:39.994Z,102440.12
2019-01-04T14:51:09.504Z,102443.41
2019-01-04T14:53:39.417Z,102439.36
2019-01-04T14:56:08.897Z,102434.18
2019-01-04T14:58:38.399Z,102427.00
2019-01-04T15:01:07.940Z,102423.92
2019-01-04T15:03:37.493Z,102425.53
2019-01-04T15:06:06.973Z,102422.52
2019-01-04T15:08:36.493Z,102422.30
2019-01-04T15:11:06.280Z,102418.69
2019-01-04T15:13:35.784Z,102422.20
2019-01-04T15:16:05.424Z,102415.06
2019-01-04T15:18:34.929Z,102418.08
2019-01-04T15:21:04.434Z,102415.60
2019-01-04T15:23:33.973Z,102416.80
2019-01-04T15:26:03.450Z,102414.69
2019-01-04T15:28:32.952Z,102413.72
2019-01-04T15:31:02.518Z,102408.90
2019-01-04T15:33:31.993Z,102405.12
2019-01-04T15:36:01.531Z,102408.45
2019-01-04T15:38:36.241Z,102401.53
2019-01-04T15:41:02.391Z,102392.52
2019-01-04T15:43:31.889Z,102392.90
2019-01-04T15:46:01.466Z,102388.58
2019-01-04T15:48:30.969Z,102386.64
2019-01-04T15:51:00.463Z,102390.86
2019-01-04T15:53:29.973Z,102383.18
2019-01-04T15:55:59.497Z,102388.22
2019-01-04T15:58:28.974Z,102391.23
2019-01-04T16:00:58.957Z,102388.55
2019-01-04T16:03:28.437Z,102382.91
2019-01-04T16:05:57.943Z,102387.08
2019-01-04T16:08:27.450Z,102385.38
2019-01-04T16:10:56.954Z,102394.04
2019-01-04T16:13:26.647Z,102400.41
2019-01-04T16:15:56.174Z,102402.10
2019-01-04T16:18:25.668Z,102398.54
2019-01-04T16:20:55.160Z,102404.03
2019-01-04T16:23:24.822Z,102396.13
2019-01-04T16:25:54.313Z,102400.63
2019-01-04T16:28:24.191Z,102407.59
2019-01-04T16:30:53.746Z,102397.87
2019-01-04T16:33:23.725Z,102397.05
2019-01-04T16:35:53.222Z,102400.34
2019-01-04T16:38:22.829Z,102394.19
2019-01-04T16:40:52.308Z,102395.43
2019-01-04T16:43:21.811Z,102396.30
2019-01-04T16:45:51.687Z,102396.66
2019-01-04T16:48:21.165Z,102391.16
2019-01-04T16:50:50.668Z,102392.54
2019-01-04T16:53:20.199Z,102395.42
2019-01-04T16:55:49.688Z,102397.98
2019-01-04T16:58:19.213Z,102403.05
2019-01-04T17:00:48.741Z,102399.36
2019-01-04T17:03:20.350Z,102397.64
2019-01-04T17:05:49.869Z,102392.35
2019-01-04T17:08:19.434Z,102396.06
2019-01-04T17:10:48.939Z,102394.90
2019-01-04T17:13:18.432Z,102389.61
2019-01-04T17:15:48.009Z,102391.26
2019-01-04T17:18:17.516Z,102392.01
2019-01-04T17:20:47.017Z,102387.08
2019-01-04T17:23:16.577Z,102396.88
2019-01-04T17:25:46.090Z,102383.38
2019-01-04T17:28:15.574Z,102384.05
2019-01-04T17:30:45.372Z,102378.53
2019-01-04T17:33:15.362Z,102372.50
2019-01-04T17:35:44.921Z,102380.34
2019-01-04T17:38:14.481Z,102365.37
2019-01-04T17:40:43.987Z,102370.50
2019-01-04T17:43:13.485Z,102374.52
2019-01-04T17:45:43.014Z,102368.60
2019-01-04T17:48:12.528Z,102365.64
2019-01-04T17:50:42.013Z,102369.50
2019-01-04T17:53:11.704Z,102362.82
2019-01-04T17:55:41.192Z,102361.63
2019-01-04T17:58:10.692Z,102366.23
2019-01-04T18:00:40.359Z,102361.76
2019-01-04T18:03:09.869Z,102359.44
2019-01-04T18:05:39.385Z,102363.66
2019-01-04T18:08:08.921Z,102366.76
2019-01-04T18:10:38.421Z,102366.72
2019-01-04T18:13:07.906Z,102360.49
2019-01-04T18:15:37.506Z,102355.34
2019-01-04T18:18:06.974Z,102361.94
2019-01-04T18:20:36.451Z,102361.01
2019-01-04T18:23:05.991Z,102352.59
2019-01-04T18:25:35.474Z,102352.44
2019-01-04T18:28:04.943Z,102352.61
2019-01-04T18:30:34.474Z,102355.51
2019-01-04T18:33:04.007Z,102360.19
2019-01-04T18:35:33.714Z,102346.91
2019-01-04T18:38:03.604Z,102354.90
2019-01-04T18:40:33.112Z,102353.82
2019-01-04T18:43:02.606Z,102352.46
2019-01-04T18:45:32.562Z,102343.77
2019-01-04T18:48:02.066Z,102357.48
2019-01-04T18:50:32.423Z,102352.95
2019-01-04T18:53:01.935Z,102351.49
2019-01-04T18:55:31.417Z,102349.83
2019-01-04T18:58:00.931Z,102347.59
2019-01-04T19:00:30.701Z,102347.14
2019-01-04T19:03:00.224Z,102356.84
2019-01-04T19:05:29.711Z,102351.26
2019-01-04T19:07:59.235Z,102356.89
2019-01-04T19:10:28.742Z,102348.00
2019-01-04T19:12:58.370Z,102338.78
2019-01-04T19:15:27.918Z,102326.71
2019-01-04T19:17:57.596Z,102322.75
2019-01-04T19:20:27.141Z,102318.37
2019-01-04T19:22:57.154Z,102320.64
2019-01-04T19:25:26.701Z,102323.09
2019-01-04T19:27:56.221Z,102314.59
2019-01-04T19:30:25.795Z,102317.09
2019-01-04T19:32:55.318Z,102310.21
2019-01-04T19:35:24.839Z,102316.94
2019-01-04T19:37:54.406Z,102308.80
2019-01-04T19:40:23.927Z,102314.33
2019-01-04T19:42:53.422Z,102308.48
2019-01-04T19:45:23.028Z,102304.83
2019-01-04T19:47:52.620Z,102294.07
2019-01-04T19:50:23.068Z,102288.56
2019-01-04T19:52:52.658Z,102282.25
2019-01-04T19:55:22.198Z,102278.86
2019-01-04T19:57:51.689Z,102268.42
2019-01-04T20:00:21.257Z,102269.69
2019-01-04T20:02:50.916Z,102254.78
2019-01-04T20:05:26.102Z,102267.98
2019-01-04T20:08:19.231Z,102266.23
2019-01-04T20:11:53.788Z,102264.23
2019-01-04T20:15:01.428Z,102269.12
2019-01-04T20:17:50.462Z,102262.05
2019-01-04T20:20:37.177Z,102245.84
2019-01-04T20:23:10.862Z,102241.32
2019-01-04T20:25:58.082Z,102242.25
2019-01-04T20:28:45.498Z,102232.47
2019-01-04T20:31:36.476Z,102228.62
2019-01-04T20:34:05.853Z,102227.67
2019-01-04T20:36:53.066Z,102221.22
2019-01-04T20:39:40.686Z,102216.50
2019-01-04T20:42:29.993Z,102210.34
2019-01-04T20:45:17.405Z,102204.95
2019-01-04T20:47:57.315Z,102202.13
2019-01-04T20:50:37.736Z,102203.13
2019-01-04T20:53:17.850Z,102185.20
2019-01-04T20:55:51.888Z,102203.73
2019-01-04T20:58:31.847Z,102200.68
2019-01-04T21:01:19.535Z,102193.34
2019-01-04T21:03:56.257Z,102193.84
2019-01-04T21:06:33.227Z,102188.08
2019-01-04T21:09:07.086Z,102187.71
2019-01-04T21:11:55.506Z,102184.94
2019-01-04T21:14:35.664Z,102184.55
2019-01-04T21:17:12.695Z,102175.19
2019-01-04T21:19:59.925Z,102180.13
2019-01-04T21:22:47.476Z,102182.83
2019-01-04T21:25:28.208Z,102177.06
2019-01-04T21:28:08.849Z,102171.00
2019-01-04T21:30:42.793Z,102157.47
2019-01-04T21:33:14.404Z,102169.00
2019-01-04T21:35:45.580Z,102160.58
2019-01-04T21:38:33.073Z,102167.88
2019-01-04T21:41:10.202Z,102154.05
2019-01-04T21:43:41.334Z,102174.69
2019-01-04T21:46:28.892Z,102165.76
2019-01-04T21:49:11.680Z,102166.10
2019-01-04T21:51:43.329Z,102154.18
2019-01-04T21:54:15.233Z,102163.29
2019-01-04T21:56:46.356Z,102155.32
2019-01-04T21:59:33.746Z,102159.61
2019-01-04T22:02:19.804Z,102154.72
2019-01-04T22:05:03.041Z,102157.30
2019-01-04T22:07:50.682Z,102151.50
2019-01-04T22:10:21.850Z,102151.76
2019-01-04T22:13:04.846Z,102145.25
2019-01-04T22:15:41.482Z,102153.84
2019-01-04T22:18:12.623Z,102145.48
2019-01-04T22:20:47.152Z,102156.67
2019-01-04T22:23:20.981Z,102145.74
2019-01-04T22:25:55.164Z,102141.93
2019-01-04T22:28:33.134Z,102133.20
2019-01-04T22:31:04.794Z,102133.82
2019-01-04T22:33:38.356Z,102130.01
2019-01-04T22:36:18.902Z,102117.34
2019-01-04T22:39:06.136Z,102112.55
2019-01-04T22:41:39.984Z,102111.08
2019-01-04T22:44:13.819Z,102105.67
2019-01-04T22:46:45.004Z,102100.02
2019-01-04T22:49:19.069Z,102096.95
2019-01-04T22:51:50.738Z,102094.59
2019-01-04T22:54:24.636Z,102078.99
2019-01-04T22:57:05.481Z,102086.14
2019-01-04T22:59:36.643Z,102092.52
2019-01-04T23:02:05.982Z,102095.22
2019-01-04T23:04:35.244Z,102085.77
2019-01-04T23:07:18.468Z,102095.95
2019-01-04T23:09:55.520Z,102090.43
2019-01-04T23:12:33.699Z,102096.08
2019-01-04T23:15:04.843Z,102089.32
2019-01-04T23:17:38.407Z,102087.85
2019-01-04T23:20:25.727Z,102099.03
2019-01-04T23:22:59.332Z,102082.94
2019-01-04T23:25:46.783Z,102073.59
2019-01-04T23:28:27.019Z,102075.69
2019-01-04T23:31:14.291Z,102075.08
2019-01-04T23:33:45.533Z,102073.84
2019-01-04T23:36:31.388Z,102069.89
2019-01-04T23:39:17.467Z,102054.55
2019-01-04T23:42:04.835Z,102046.94
2019-01-04T23:44:47.902Z,102034.28
2019-01-04T23:47:28.810Z,102034.05
2019-01-04T23:50:12.779Z,102035.77
2019-01-04T23:52:47.484Z,102026.92
2019-01-04T23:55:27.519Z,102028.13
2019-01-04T23:58:10.586Z,102018.13
